Last 30 Days

Squaw-Belmont 8000'

Daily Data | America/Los_Angeles
as of 10/18/19 7:14 AM PDT
Date Daily Max Temp (°F) Max Temp Time Daily Min Temp (°F) Min Temp Time Daily Rain (In) Seasonal Rainfall (In) Wind Spd (mph) Daily Max Wind (mph) Max Wind Time Max Wind Dir (°) Max RH (%) Min RH (%) Wet Bulb (°F) WetB Hrs <28F (hrs) Bat Volt Min Day (V)
10/17/19 - 0001 - 0001 0.12 58.28 9.7 43.2 0130 W | 264 36 36 - 0.0 13.36
10/16/19 - 0001 - 0001 0.00 58.16 10.7 34.5 2256 S | 174 36 36 - 0.0 13.21
10/15/19 - 0001 - 0001 0.00 58.16 5.7 25.2 1503 WSW | 246 36 36 - 0.0 13.17
10/14/19 - 0001 - 0001 0.00 58.16 3.4 13.3 1646 WNW | 285 36 36 - 0.0 13.22
10/13/19 - 0001 - 0001 0.00 58.16 7.5 18.8 0242 SW | 230 36 36 - 0.0 13.24
10/12/19 - 0001 - 0001 0.00 58.16 3.0 14.3 2340 SSW | 201 36 36 - 0.0 13.19
10/11/19 - 0001 - 0001 0.00 58.16 2.1 9.0 1609 NW | 304 36 36 - 0.0 13.23
10/10/19 - 0001 - 0001 0.00 58.16 5.5 22.3 1205 ESE | 112 36 36 - 0.0 13.38
10/9/19 - 0001 - 0001 0.00 58.16 9.5 32.1 0141 WSW | 257 36 36 - 0.0 13.25
10/8/19 59.0 1108 46.2 0435 0.00 58.16 10.3 30.6 2355 S | 184 37 18 - 0.0 13.14
10/7/19 60.0 1115 48.4 0008 0.00 58.16 9.6 21.3 0717 SW | 220 45 14 37.1 0.0 13.18
10/6/19 60.9 1436 36.4 0650 0.00 58.16 4.6 13.8 2054 SSW | 196 62 32 38.4 0.0 13.17
10/5/19 57.9 1112 35.1 0208 0.00 58.16 3.4 12.0 1504 SW | 232 73 10 35.2 2.5 13.17
10/4/19 48.2 1506 29.3 0709 0.00 58.16 6.6 33.5 0200 SW | 221 85 18 30.6 5.6 13.26
10/3/19 45.7 1138 32.9 2323 0.00 58.16 10.4 31.3 1456 WSW | 240 77 31 31.3 0.7 13.26
10/2/19 53.0 1119 27.0 0037 0.00 58.16 4.9 21.0 2137 SSW | 198 94 21 31.8 8.1 13.23
10/1/19 37.7 1629 19.8 0002 0.19 58.16 2.4 11.1 1219 SE | 140 98 48 26.2 13.9 13.36
9/30/19 29.3 1244 19.9 2359 0.19 57.97 7.5 33.7 0339 SW | 221 99 76 24.2 24.0 13.39
9/29/19 29.5 1501 22.0 0701 0.08 57.78 9.8 31.8 2318 SSW | 208 99 75 24.2 24.0 13.43
9/28/19 42.2 0121 23.5 2244 0.27 57.70 11.3 39.5 1049 SSW | 196 100 67 32.2 6.9 13.34
9/27/19 59.1 1121 40.9 2348 0.00 57.43 13.2 36.4 1603 W | 259 99 51 44.5 0.0 13.15
9/26/19 66.8 1119 47.9 0606 0.00 57.43 7.5 22.6 1837 NW | 305 79 37 47.8 0.0 13.07
9/25/19 63.4 1121 50.1 0711 0.00 57.43 4.6 16.6 1045 ESE | 106 67 48 47.4 0.0 13.10
9/24/19 63.0 1534 43.1 0644 0.00 57.43 4.3 17.7 0042 ENE | 70 70 34 43.6 0.0 13.13
9/23/19 54.6 1130 37.8 0706 0.00 57.43 4.8 17.4 1950 ENE | 78 84 45 40.4 0.0 13.19
9/22/19 57.2 1237 41.9 2351 0.00 57.43 7.6 29.4 1107 SSW | 197 83 34 41.1 0.0 13.15
9/21/19 53.9 1704 34.0 0530 0.00 57.43 2.8 13.7 1001 E | 79 89 34 38.2 0.0 13.23
9/20/19 50.8 1618 31.5 0639 0.00 57.43 3.0 15.3 0202 NNE | 29 100 51 36.8 0.0 13.26
9/19/19 43.0 1552 31.9 0643 0.13 57.43 5.3 20.4 0114 SW | 224 100 70 34.7 0.0 13.31
9/18/19 42.8 0001 32.0 2344 0.49 57.30 11.0 41.0 1004 S | 184 100 23 33.6 0.0 13.41
Max 66.8 - 50.1 - 0.49 - 13.2 43.2 - - 100 76 47.8 24.0 13.43
Avg - - - - - - 6.7 - - - - - 36.0 - -
Min 29.3 - 19.8 - 0.00 - 2.1 9.0 - - 36 10 24.2 0.0 13.07